Time;durP1;ratioP1;P1;durP2;ratioP2;P2;SDS_P1;SDS_P2;PMS_P1;PMS_P2;Temp;Humidity;BMP_temperature;BMP_pressure;BME280_temperature;BME280_humidity;BME280_pressure;Samples;Min_cycle;Max_cycle;Signal;HPM_P1;HPM_P2
2024/02/18 00:00:19;;;;;;;12.43;7.00;;;;;;;6.93;100.00;102590.00;5032376;28;20044;-84
2024/02/18 00:02:46;;;;;;;8.55;6.18;;;;;;;6.82;100.00;102573.06;5043138;28;20041;-84
2024/02/18 00:05:14;;;;;;;9.07;7.20;;;;;;;6.76;100.00;102584.16;5045482;28;20103;-84
2024/02/18 00:07:41;;;;;;;10.60;6.78;;;;;;;6.66;100.00;102589.84;5049003;28;20128;-84
2024/02/18 00:10:08;;;;;;;8.23;5.97;;;;;;;6.58;100.00;102595.66;5031573;28;20052;-84
2024/02/18 00:12:35;;;;;;;9.85;6.50;;;;;;;6.52;100.00;102581.47;5032415;28;20810;-84
2024/02/18 00:15:01;;;;;;;8.15;6.07;;;;;;;6.47;100.00;102583.91;5047527;28;20109;-82
2024/02/18 00:17:28;;;;;;;14.93;6.75;;;;;;;6.39;100.00;102569.75;5034542;28;20053;-83
2024/02/18 00:19:54;;;;;;;7.13;5.93;;;;;;;6.36;100.00;102567.91;5047567;28;20048;-82
2024/02/18 00:22:21;;;;;;;10.10;6.47;;;;;;;6.32;100.00;102565.97;5034345;28;20055;-84
2024/02/18 00:24:48;;;;;;;9.88;7.07;;;;;;;6.26;100.00;102560.56;5031952;28;20045;-85
2024/02/18 00:27:15;;;;;;;8.40;6.55;;;;;;;6.24;100.00;102563.06;5044035;28;20459;-82
2024/02/18 00:29:41;;;;;;;10.45;6.80;;;;;;;6.23;100.00;102568.22;5035675;28;20071;-82
2024/02/18 00:32:08;;;;;;;11.18;6.85;;;;;;;6.19;100.00;102569.84;5031603;28;20053;-83
2024/02/18 00:34:34;;;;;;;14.32;8.20;;;;;;;6.17;100.00;102568.88;5044791;28;20485;-84
2024/02/18 00:37:01;;;;;;;10.05;7.53;;;;;;;6.16;100.00;102576.63;5048252;28;20040;-83
2024/02/18 00:39:29;;;;;;;9.65;7.13;;;;;;;6.15;100.00;102564.44;5031878;28;20064;-84
2024/02/18 00:41:58;;;;;;;9.00;7.03;;;;;;;6.12;100.00;102568.66;5032710;28;20048;-84
2024/02/18 00:44:25;;;;;;;10.43;6.65;;;;;;;6.11;100.00;102569.53;5047167;28;20073;-82
2024/02/18 00:46:52;;;;;;;8.63;7.03;;;;;;;6.11;100.00;102561.72;5052462;28;20048;-83
2024/02/18 00:49:19;;;;;;;9.25;6.50;;;;;;;6.10;100.00;102562.53;5035589;28;20044;-84
2024/02/18 00:51:45;;;;;;;10.75;7.60;;;;;;;6.09;100.00;102567.69;5049084;28;20049;-84
2024/02/18 00:54:12;;;;;;;8.30;7.20;;;;;;;6.13;100.00;102565.25;5045579;28;20121;-84
2024/02/18 00:56:38;;;;;;;8.75;6.18;;;;;;;6.12;100.00;102567.81;5036551;28;20131;-82
2024/02/18 00:59:05;;;;;;;9.07;6.68;;;;;;;6.08;100.00;102558.97;5028991;28;20420;-83
2024/02/18 01:01:31;;;;;;;10.20;6.80;;;;;;;6.08;100.00;102553.78;5034594;28;20047;-84
2024/02/18 01:04:00;;;;;;;9.57;7.30;;;;;;;6.07;100.00;102553.72;5032014;28;20048;-85
2024/02/18 01:06:27;;;;;;;8.82;6.68;;;;;;;6.01;100.00;102549.19;5048911;28;20043;-84
2024/02/18 01:08:53;;;;;;;10.00;6.78;;;;;;;5.98;100.00;102549.03;5045716;28;20056;-84
2024/02/18 01:11:20;;;;;;;10.38;7.97;;;;;;;5.96;100.00;102551.53;5030303;28;20345;-83
2024/02/18 01:13:46;;;;;;;8.75;7.00;;;;;;;5.95;100.00;102546.28;5047962;28;20040;-83
2024/02/18 01:16:13;;;;;;;13.88;7.75;;;;;;;5.90;100.00;102546.09;5033510;28;20397;-84
2024/02/18 01:18:41;;;;;;;12.25;8.18;;;;;;;5.89;100.00;102538.22;5034838;28;20047;-82
2024/02/18 01:21:08;;;;;;;14.13;8.27;;;;;;;5.87;100.00;102537.31;5043457;28;20037;-83
2024/02/18 01:23:34;;;;;;;9.98;7.43;;;;;;;5.86;100.00;102536.41;5035228;28;20131;-84
2024/02/18 01:26:01;;;;;;;10.15;8.20;;;;;;;5.85;100.00;102542.41;5040767;28;20143;-83
2024/02/18 01:28:28;;;;;;;9.90;7.35;;;;;;;5.83;100.00;102538.88;5047155;28;20080;-84
2024/02/18 01:30:57;;;;;;;9.40;7.22;;;;;;;5.82;100.00;102529.31;5030984;28;20160;-84
2024/02/18 01:33:23;;;;;;;10.57;8.88;;;;;;;5.83;100.00;102533.69;5032880;28;20494;-83
2024/02/18 01:35:54;;;;;;;9.13;7.07;;;;;;;5.82;100.00;102528.44;5032557;28;20075;-83
2024/02/18 01:38:20;;;;;;;10.98;7.63;;;;;;;5.77;100.00;102526.50;5049404;28;21081;-82
2024/02/18 01:40:47;;;;;;;13.55;8.73;;;;;;;5.79;100.00;102531.78;5050167;28;20112;-83
2024/02/18 01:43:17;;;;;;;12.30;8.18;;;;;;;5.76;100.00;102529.94;5033196;28;20064;-83
2024/02/18 01:45:46;;;;;;;13.07;8.27;;;;;;;5.80;100.00;102524.06;5032512;28;20052;-84
2024/02/18 01:48:15;;;;;;;11.80;8.40;;;;;;;5.79;100.00;102529.19;5044632;28;20049;-83
2024/02/18 01:50:42;;;;;;;12.43;9.05;;;;;;;5.78;100.00;102515.28;5032468;28;20045;-83
2024/02/18 01:53:13;;;;;;;15.63;8.95;;;;;;;5.80;100.00;102515.34;5049486;28;20048;-83
2024/02/18 01:55:41;;;;;;;12.90;9.60;;;;;;;5.79;100.00;102519.66;5032040;28;20094;-84
2024/02/18 01:58:08;;;;;;;14.25;9.82;;;;;;;5.79;100.00;102517.06;5033858;28;20048;-85
2024/02/18 02:00:39;;;;;;;16.80;9.25;;;;;;;5.81;100.00;102519.72;5049800;28;20036;-84
2024/02/18 02:03:06;;;;;;;17.25;9.82;;;;;;;5.79;100.00;102521.38;5044744;28;20048;-82
2024/02/18 02:05:33;;;;;;;13.63;9.32;;;;;;;5.79;100.00;102521.38;5029298;28;20045;-83
2024/02/18 02:08:02;;;;;;;13.70;9.82;;;;;;;5.78;100.00;102520.47;5047996;28;20063;-83
2024/02/18 02:10:29;;;;;;;18.45;10.00;;;;;;;5.78;100.00;102517.88;5033743;28;20045;-83
2024/02/18 02:12:55;;;;;;;12.95;9.10;;;;;;;5.79;100.00;102517.06;5050665;28;20056;-84
2024/02/18 02:15:22;;;;;;;17.08;11.05;;;;;;;5.76;100.00;102513.44;5050767;28;20052;-82
2024/02/18 02:17:49;;;;;;;12.80;9.07;;;;;;;5.77;100.00;102517.81;5028174;28;20043;-83
2024/02/18 02:20:15;;;;;;;16.52;9.73;;;;;;;5.74;100.00;102512.53;5034527;28;20055;-82
2024/02/18 02:22:42;;;;;;;16.08;9.98;;;;;;;5.75;100.00;102515.19;5033865;28;20410;-83
2024/02/18 02:25:13;;;;;;;17.67;10.82;;;;;;;5.73;100.00;102513.34;5036281;28;20850;-84
2024/02/18 02:27:43;;;;;;;16.38;10.32;;;;;;;5.72;100.00;102515.06;5049852;28;20056;-83
2024/02/18 02:30:09;;;;;;;19.77;12.10;;;;;;;5.72;100.00;102512.47;5037499;28;20672;-83
2024/02/18 02:32:36;;;;;;;21.27;9.77;;;;;;;5.73;100.00;102516.81;5037022;28;20113;-83
2024/02/18 02:35:03;;;;;;;15.15;10.00;;;;;;;5.70;100.00;102518.41;5051920;28;20136;-83
2024/02/18 02:37:31;;;;;;;17.05;10.00;;;;;;;5.68;100.00;102512.25;5037088;28;20056;-83
2024/02/18 02:39:57;;;;;;;19.83;10.55;;;;;;;5.66;100.00;102501.81;5036060;28;20052;-84
2024/02/18 02:42:24;;;;;;;19.90;10.55;;;;;;;5.66;100.00;102506.09;5040049;28;20050;-84
2024/02/18 02:44:53;;;;;;;15.90;10.82;;;;;;;5.67;100.00;102502.69;5035768;28;20062;-83
2024/02/18 02:47:19;;;;;;;25.92;12.93;;;;;;;5.65;100.00;102493.97;5035401;28;20147;-82
2024/02/18 02:49:46;;;;;;;18.13;10.32;;;;;;;5.62;100.00;102493.00;5035641;28;20051;-84
2024/02/18 02:52:12;;;;;;;19.13;11.65;;;;;;;5.60;100.00;102492.03;5034865;28;20076;-84
2024/02/18 02:54:39;;;;;;;19.92;11.55;;;;;;;5.60;100.00;102493.75;5052925;28;20036;-82
2024/02/18 02:57:05;;;;;;;20.38;11.93;;;;;;;5.59;100.00;102490.28;5034949;28;20396;-82
2024/02/18 02:59:34;;;;;;;18.63;12.55;;;;;;;5.58;100.00;102488.50;5052936;28;20374;-84
2024/02/18 03:02:01;;;;;;;20.17;12.20;;;;;;;5.57;100.00;102488.44;5050246;28;20044;-82
2024/02/18 03:04:27;;;;;;;18.02;11.63;;;;;;;5.57;100.00;102497.09;5065964;28;20045;-84
2024/02/18 03:06:54;;;;;;;23.83;12.13;;;;;;;5.55;100.00;102490.06;5053300;28;20520;-83
2024/02/18 03:09:21;;;;;;;20.48;12.20;;;;;;;5.55;100.00;102488.34;5048319;28;20534;-84
2024/02/18 03:11:47;;;;;;;21.55;12.48;;;;;;;5.56;100.00;102479.75;5033804;28;20060;-83
2024/02/18 03:14:14;;;;;;;23.27;14.18;;;;;;;5.57;100.00;102473.72;5064275;28;20531;-82
2024/02/18 03:16:40;;;;;;;24.98;12.95;;;;;;;5.57;100.00;102476.31;5037484;28;20055;-83
2024/02/18 03:19:07;;;;;;;26.50;14.13;;;;;;;5.58;100.00;102472.00;5037513;28;20094;-84
2024/02/18 03:21:33;;;;;;;24.65;14.52;;;;;;;5.58;100.00;102467.72;5056009;28;20045;-83
2024/02/18 03:24:00;;;;;;;21.73;13.40;;;;;;;5.60;100.00;102467.78;5052122;28;20389;-83
2024/02/18 03:26:27;;;;;;;20.75;13.68;;;;;;;5.61;100.00;102465.22;5050125;28;20051;-82
2024/02/18 03:28:54;;;;;;;24.27;13.77;;;;;;;5.60;100.00;102465.19;5034889;28;20044;-83
2024/02/18 03:31:21;;;;;;;23.77;13.73;;;;;;;5.61;100.00;102460.03;5035902;28;20127;-83
2024/02/18 03:33:48;;;;;;;26.65;14.70;;;;;;;5.61;100.00;102460.03;5054851;28;20127;-83
2024/02/18 03:36:14;;;;;;;29.13;14.32;;;;;;;5.64;100.00;102454.06;5036338;28;20056;-84
2024/02/18 03:38:41;;;;;;;28.58;14.13;;;;;;;5.67;100.00;102453.31;5048119;28;20504;-84
2024/02/18 03:41:08;;;;;;;25.70;13.77;;;;;;;5.66;100.00;102451.53;5030126;28;20053;-84
2024/02/18 03:43:35;;;;;;;24.15;13.20;;;;;;;5.66;100.00;102444.66;5035069;28;20049;-85
2024/02/18 03:46:02;;;;;;;24.85;14.60;;;;;;;5.66;100.00;102444.66;5040989;28;20165;-83
2024/02/18 03:48:29;;;;;;;27.15;13.80;;;;;;;5.69;100.00;102444.75;5049603;28;20048;-82
2024/02/18 03:50:56;;;;;;;27.63;14.93;;;;;;;5.70;100.00;102433.53;5052583;28;20494;-83
2024/02/18 03:53:25;;;;;;;29.10;15.48;;;;;;;5.72;100.00;102429.31;5031398;28;20500;-83
2024/02/18 03:55:51;;;;;;;27.80;15.63;;;;;;;5.74;100.00;102429.38;5036253;28;20055;-83
2024/02/18 03:58:18;;;;;;;27.83;14.48;;;;;;;5.74;100.00;102424.16;5033312;28;20055;-84
2024/02/18 04:00:46;;;;;;;28.15;15.43;;;;;;;5.78;100.00;102423.47;5037256;28;20059;-84
2024/02/18 04:03:14;;;;;;;29.65;15.35;;;;;;;5.78;100.00;102431.25;5049716;28;20044;-84
2024/02/18 04:05:42;;;;;;;34.50;17.35;;;;;;;5.79;100.00;102420.03;5033994;28;20041;-83
2024/02/18 04:08:09;;;;;;;32.28;18.08;;;;;;;5.80;100.00;102433.09;5034346;28;20080;-82
2024/02/18 04:10:35;;;;;;;31.15;16.42;;;;;;;5.80;100.00;102427.88;5035325;28;20045;-84
2024/02/18 04:13:02;;;;;;;28.52;15.18;;;;;;;5.81;100.00;102423.56;5047768;28;20457;-83
2024/02/18 04:15:29;;;;;;;29.60;15.82;;;;;;;5.80;100.00;102421.78;5033316;28;20405;-82
2024/02/18 04:17:55;;;;;;;36.58;17.52;;;;;;;5.81;100.00;102420.97;5055855;28;20094;-84
2024/02/18 04:20:22;;;;;;;33.00;16.88;;;;;;;5.80;100.00;102421.78;5038005;28;20059;-82
2024/02/18 04:22:49;;;;;;;33.05;16.35;;;;;;;5.81;100.00;102420.97;5037184;28;20037;-83
2024/02/18 04:25:16;;;;;;;37.38;17.75;;;;;;;5.82;100.00;102419.28;5056839;28;20064;-83
2024/02/18 04:27:42;;;;;;;32.90;16.23;;;;;;;5.82;100.00;102407.16;5034646;28;20044;-82
2024/02/18 04:30:09;;;;;;;36.22;16.92;;;;;;;5.85;100.00;102411.59;5037595;28;20040;-82
2024/02/18 04:32:36;;;;;;;34.58;18.67;;;;;;;5.85;100.00;102404.66;5036187;28;20055;-83
2024/02/18 04:35:03;;;;;;;42.58;17.63;;;;;;;5.88;100.00;102402.19;5035984;28;20420;-84
2024/02/18 04:37:32;;;;;;;38.70;17.73;;;;;;;5.88;100.00;102394.41;5035137;28;20055;-83
2024/02/18 04:39:58;;;;;;;37.60;17.15;;;;;;;5.90;100.00;102391.84;5044164;28;20060;-83
2024/02/18 04:42:25;;;;;;;37.25;18.33;;;;;;;5.88;100.00;102388.28;5032080;28;20044;-83
2024/02/18 04:44:52;;;;;;;37.92;18.23;;;;;;;5.90;100.00;102390.13;5036870;28;20419;-83
2024/02/18 04:47:18;;;;;;;40.22;18.63;;;;;;;5.91;100.00;102389.31;5036275;28;20048;-83
2024/02/18 04:49:45;;;;;;;38.05;17.65;;;;;;;5.92;100.00;102383.28;5050877;28;20090;-83
2024/02/18 04:52:12;;;;;;;37.35;18.63;;;;;;;5.97;100.00;102381.75;5028575;28;20090;-82
2024/02/18 04:54:38;;;;;;;38.97;18.42;;;;;;;6.00;100.00;102374.91;5038569;28;20044;-84
2024/02/18 04:57:05;;;;;;;38.60;19.23;;;;;;;6.05;100.00;102382.06;5035316;28;20677;-85
2024/02/18 04:59:33;;;;;;;36.95;20.55;;;;;;;6.07;100.00;102380.41;5035855;28;20132;-83
2024/02/18 05:02:01;;;;;;;37.67;18.83;;;;;;;6.09;100.00;102377.88;5044403;28;20051;-82
2024/02/18 05:04:31;;;;;;;38.90;20.30;;;;;;;6.11;100.00;102365.81;5040784;28;20407;-82
2024/02/18 05:06:57;;;;;;;44.40;19.27;;;;;;;6.12;100.00;102370.19;5034627;28;20060;-84
2024/02/18 05:09:24;;;;;;;36.60;19.83;;;;;;;6.12;100.00;102371.06;5031415;28;20064;-83
2024/02/18 05:11:51;;;;;;;37.67;18.35;;;;;;;6.12;100.00;102363.25;5032081;28;20055;-84
2024/02/18 05:14:18;;;;;;;35.72;18.90;;;;;;;6.19;100.00;102363.50;5051641;28;20048;-83
2024/02/18 05:16:45;;;;;;;46.15;19.48;;;;;;;6.23;100.00;102366.28;5045464;28;20119;-84
2024/02/18 05:19:12;;;;;;;33.67;18.08;;;;;;;6.28;100.00;102367.31;5039688;28;20044;-83
2024/02/18 05:21:41;;;;;;;35.63;19.40;;;;;;;6.32;100.00;102363.09;5036112;28;20047;-83
2024/02/18 05:24:13;;;;;;;33.05;17.85;;;;;;;6.37;100.00;102355.47;5038031;28;20102;-83
2024/02/18 05:26:40;;;;;;;36.83;18.23;;;;;;;6.43;100.00;102359.19;5032340;28;20492;-83
2024/02/18 05:29:07;;;;;;;40.70;18.65;;;;;;;6.51;100.00;102355.97;5034152;28;20076;-83
2024/02/18 05:31:33;;;;;;;37.03;18.02;;;;;;;6.52;100.00;102357.72;5049890;28;20043;-82
2024/02/18 05:34:00;;;;;;;35.50;19.15;;;;;;;6.55;100.00;102350.91;5031642;28;20079;-84
2024/02/18 05:36:26;;;;;;;36.55;17.38;;;;;;;6.55;100.00;102348.31;5054251;28;20087;-82
2024/02/18 05:38:53;;;;;;;35.47;18.23;;;;;;;6.62;100.00;102345.09;5039422;28;20040;-82
2024/02/18 05:41:20;;;;;;;37.13;18.65;;;;;;;6.69;100.00;102340.09;5032571;28;20326;-83
2024/02/18 05:43:47;;;;;;;36.55;17.95;;;;;;;6.67;100.00;102326.16;5033709;28;20045;-83
2024/02/18 05:46:17;;;;;;;34.25;16.52;;;;;;;6.68;100.00;102338.34;5039749;28;20060;-83
2024/02/18 05:48:44;;;;;;;43.33;19.35;;;;;;;6.74;100.00;102330.72;5030275;28;20040;-83
2024/02/18 05:51:11;;;;;;;34.10;17.23;;;;;;;6.75;100.00;102335.09;5042668;28;20040;-84
2024/02/18 05:53:38;;;;;;;37.28;17.10;;;;;;;6.78;100.00;102323.09;5025176;28;20047;-83
2024/02/18 05:56:05;;;;;;;33.08;17.08;;;;;;;6.82;100.00;102321.47;5034590;28;20045;-83
2024/02/18 05:58:32;;;;;;;33.30;17.70;;;;;;;6.83;100.00;102323.25;5036703;28;20143;-83
2024/02/18 06:01:01;;;;;;;35.17;18.25;;;;;;;6.83;100.00;102315.44;5037026;28;20128;-82
2024/02/18 06:03:30;;;;;;;36.53;18.35;;;;;;;6.87;100.00;102306.91;5037263;28;20048;-83
2024/02/18 06:05:57;;;;;;;33.25;18.90;;;;;;;6.88;100.00;102302.56;5042698;28;20052;-83
2024/02/18 06:08:26;;;;;;;32.53;16.70;;;;;;;6.92;100.00;102302.72;5034714;28;20131;-83
2024/02/18 06:10:52;;;;;;;31.45;18.13;;;;;;;6.92;100.00;102307.94;5048621;28;20049;-82
2024/02/18 06:13:20;;;;;;;37.30;17.95;;;;;;;6.97;100.00;102305.47;5034380;28;20151;-83
2024/02/18 06:15:48;;;;;;;35.17;18.05;;;;;;;7.00;100.00;102304.69;5036741;28;20398;-83
2024/02/18 06:18:14;;;;;;;34.78;17.73;;;;;;;7.04;100.00;102301.34;5056774;28;20044;-83
2024/02/18 06:20:41;;;;;;;33.65;18.92;;;;;;;7.04;100.00;102297.03;5036888;28;20041;-84
2024/02/18 06:23:08;;;;;;;37.88;17.95;;;;;;;7.06;100.00;102292.72;5040253;28;20063;-83
2024/02/18 06:25:37;;;;;;;36.40;18.17;;;;;;;7.03;100.00;102295.25;5057560;28;20048;-84
2024/02/18 06:28:11;;;;;;;34.72;18.02;;;;;;;7.07;100.00;102294.50;5038745;28;20074;-83
2024/02/18 06:30:38;;;;;;;33.03;17.23;;;;;;;7.09;100.00;102298.06;5049132;28;20037;-83
2024/02/18 06:33:06;;;;;;;37.78;19.95;;;;;;;7.11;100.00;102298.09;5032007;28;20705;-83
2024/02/18 06:35:33;;;;;;;36.97;18.30;;;;;;;7.14;100.00;102289.50;5032598;28;20045;-83
2024/02/18 06:38:00;;;;;;;31.67;17.52;;;;;;;7.15;100.00;102291.28;5034860;28;20049;-84
2024/02/18 06:40:26;;;;;;;37.30;19.38;;;;;;;7.16;100.00;102282.59;5031440;28;20094;-84
2024/02/18 06:42:57;;;;;;;28.92;17.35;;;;;;;7.17;100.00;102279.16;5034364;28;20059;-83
2024/02/18 06:45:23;;;;;;;31.05;16.92;;;;;;;7.16;100.00;102280.91;5030293;28;20056;-83
2024/02/18 06:47:50;;;;;;;31.63;17.00;;;;;;;7.12;100.00;102269.50;5031547;28;20095;-82
2024/02/18 06:50:18;;;;;;;28.90;15.90;;;;;;;7.10;100.00;102267.69;5033931;28;20072;-82
2024/02/18 06:52:46;;;;;;;30.38;16.58;;;;;;;7.15;100.00;102263.50;5031469;28;20040;-83
2024/02/18 06:55:13;;;;;;;35.63;17.40;;;;;;;7.18;100.00;102266.19;5032984;28;20048;-87
2024/02/18 06:57:46;;;;;;;30.25;15.70;;;;;;;7.17;100.00;102256.63;5047073;28;20075;-83
2024/02/18 07:00:16;;;;;;;30.60;16.48;;;;;;;7.23;100.00;102250.72;5029574;28;20638;-84
2024/02/18 07:02:43;;;;;;;31.60;15.43;;;;;;;7.27;100.00;102243.06;5031883;28;20040;-83
2024/02/18 07:05:11;;;;;;;31.05;15.88;;;;;;;7.26;100.00;102251.72;5031690;28;20388;-84
2024/02/18 07:07:41;;;;;;;29.45;15.90;;;;;;;7.33;100.00;102241.47;5040926;28;20675;-85
2024/02/18 07:10:07;;;;;;;28.65;15.93;;;;;;;7.33;100.00;102231.06;5034786;28;20045;-83
2024/02/18 07:12:34;;;;;;;29.83;15.35;;;;;;;7.39;100.00;102234.72;5052353;28;20131;-83
2024/02/18 07:15:01;;;;;;;28.33;14.60;;;;;;;7.47;100.00;102239.25;5036534;28;20044;-82
2024/02/18 07:17:28;;;;;;;29.20;13.70;;;;;;;7.45;100.00;102231.41;5033797;28;20063;-84
2024/02/18 07:19:56;;;;;;;27.58;14.75;;;;;;;7.53;100.00;102222.06;5036631;28;20135;-83
2024/02/18 07:22:25;;;;;;;24.48;13.13;;;;;;;7.61;100.00;102224.91;5036578;28;20041;-84
2024/02/18 07:24:52;;;;;;;22.10;12.93;;;;;;;7.65;100.00;102216.34;5036539;28;20159;-83
2024/02/18 07:27:18;;;;;;;23.92;14.27;;;;;;;7.68;100.00;102219.03;5065250;28;20040;-84
2024/02/18 07:29:45;;;;;;;34.55;13.50;;;;;;;7.69;100.00;102213.00;5034988;28;20052;-83
2024/02/18 07:32:16;;;;;;;23.98;13.27;;;;;;;7.72;100.00;102217.41;5054501;28;20063;-82
2024/02/18 07:34:42;;;;;;;25.17;13.15;;;;;;;7.72;100.00;102213.06;5048627;28;20036;-83
2024/02/18 07:37:10;;;;;;;22.75;12.70;;;;;;;7.74;100.00;102210.50;5052069;28;20049;-83
2024/02/18 07:39:37;;;;;;;21.88;11.68;;;;;;;7.83;100.00;102209.88;5033010;28;20041;-84
2024/02/18 07:42:04;;;;;;;19.80;11.63;;;;;;;7.80;100.00;102196.78;5033671;28;20055;-82
2024/02/18 07:44:31;;;;;;;22.42;13.02;;;;;;;7.85;100.00;102200.34;5038293;28;20401;-83
2024/02/18 07:46:58;;;;;;;27.27;12.68;;;;;;;7.88;100.00;102195.25;5036337;28;20054;-84
2024/02/18 07:49:25;;;;;;;20.13;12.45;;;;;;;7.97;100.00;102195.50;5034675;28;20706;-83
2024/02/18 07:51:51;;;;;;;21.52;11.82;;;;;;;7.99;100.00;102191.22;5035460;28;20912;-83
2024/02/18 07:54:18;;;;;;;23.35;12.30;;;;;;;8.02;100.00;102179.97;5046799;28;20076;-83
2024/02/18 07:56:46;;;;;;;17.88;11.18;;;;;;;8.11;100.00;102183.69;5037150;28;20131;-83
2024/02/18 07:59:18;;;;;;;19.95;11.48;;;;;;;8.10;100.00;102178.44;5030037;28;20504;-83
2024/02/18 08:01:45;;;;;;;20.00;12.20;;;;;;;8.16;100.00;102177.69;5052283;28;20121;-83
2024/02/18 08:04:12;;;;;;;16.60;10.95;;;;;;;8.18;100.00;102173.41;5035695;28;20049;-82
2024/02/18 08:06:39;;;;;;;19.77;12.10;;;;;;;8.23;100.00;102166.59;5053846;28;20047;-83
2024/02/18 08:09:05;;;;;;;17.77;10.82;;;;;;;8.27;100.00;102158.88;5053049;28;20040;-83
2024/02/18 08:11:35;;;;;;;21.10;12.48;;;;;;;8.37;100.00;102161.69;5033284;28;20144;-83
2024/02/18 08:14:02;;;;;;;19.60;10.80;;;;;;;8.43;100.00;102156.63;5038857;28;20396;-83
2024/02/18 08:16:31;;;;;;;21.25;11.77;;;;;;;8.44;100.00;102147.97;5033843;28;20102;-82
2024/02/18 08:18:58;;;;;;;19.30;10.55;;;;;;;8.52;100.00;102148.19;5045833;28;20044;-82
2024/02/18 08:21:24;;;;;;;16.02;10.95;;;;;;;8.63;100.00;102143.22;5045673;28;20935;-81
2024/02/18 08:23:51;;;;;;;16.00;10.45;;;;;;;8.76;100.00;102138.31;5067545;28;20041;-82
2024/02/18 08:26:26;;;;;;;18.15;10.68;;;;;;;8.80;100.00;102135.75;5034566;28;20117;-82
2024/02/18 08:28:54;;;;;;;15.95;9.43;;;;;;;8.92;100.00;102126.47;5051595;28;20679;-83
2024/02/18 08:31:23;;;;;;;17.10;10.75;;;;;;;8.94;100.00;102123.88;5033797;28;20588;-84
2024/02/18 08:33:50;;;;;;;14.02;8.57;;;;;;;9.14;100.00;102121.69;5057688;28;20049;-82
2024/02/18 08:36:17;;;;;;;13.43;9.20;;;;;;;9.26;100.00;102114.09;5040376;28;20131;-81
2024/02/18 08:38:44;;;;;;;17.15;10.32;;;;;;;9.31;100.00;102110.69;5034450;28;20045;-83
2024/02/18 08:41:14;;;;;;;14.40;10.05;;;;;;;9.21;100.00;102110.50;5035243;28;20044;-82
2024/02/18 08:43:42;;;;;;;16.38;10.40;;;;;;;9.37;100.00;102113.44;5065149;28;20040;-83
2024/02/18 08:46:09;;;;;;;16.95;9.75;;;;;;;9.33;100.00;102094.19;5049381;28;20056;-85
2024/02/18 08:48:38;;;;;;;14.90;10.05;;;;;;;9.46;100.00;102100.53;5049272;28;20050;-83
2024/02/18 08:51:06;;;;;;;16.55;10.80;;;;;;;9.49;100.00;102099.72;5051029;28;20051;-83
2024/02/18 08:53:33;;;;;;;13.50;9.02;;;;;;;9.54;100.00;102093.75;5026446;28;20056;-84
2024/02/18 08:56:00;;;;;;;17.10;9.93;;;;;;;9.57;100.00;102093.78;5029976;28;20466;-83
2024/02/18 08:58:27;;;;;;;14.10;9.30;;;;;;;9.57;100.00;102092.91;5032013;28;20067;-83
2024/02/18 09:00:53;;;;;;;16.27;9.23;;;;;;;9.59;100.00;102091.19;5033153;28;20127;-83
2024/02/18 09:03:20;;;;;;;13.13;8.40;;;;;;;9.72;100.00;102087.94;5031650;28;20043;-83
2024/02/18 09:05:48;;;;;;;13.68;8.75;;;;;;;9.78;100.00;102084.56;5043729;28;20464;-84
2024/02/18 09:08:15;;;;;;;11.25;8.27;;;;;;;9.85;100.00;102093.41;5033545;28;20032;-82
2024/02/18 09:10:42;;;;;;;12.70;8.27;;;;;;;9.72;100.00;102087.06;5029589;28;20432;-84
2024/02/18 09:13:08;;;;;;;12.82;8.63;;;;;;;9.83;100.00;102080.31;5034360;28;20048;-84
2024/02/18 09:15:35;;;;;;;15.70;8.55;;;;;;;9.89;100.00;102079.50;5049325;28;20043;-83
2024/02/18 09:18:02;;;;;;;12.65;8.10;;;;;;;9.96;100.00;102073.53;5039376;28;20046;-84
2024/02/18 09:20:29;;;;;;;11.98;9.57;;;;;;;9.93;100.00;102082.22;5048205;28;20049;-83
2024/02/18 09:22:58;;;;;;;12.52;8.18;;;;;;;10.05;100.00;102078.91;5049069;28;20043;-83
2024/02/18 09:25:25;;;;;;;15.02;9.02;;;;;;;10.04;100.00;102071.91;5032605;28;20128;-83
2024/02/18 09:27:52;;;;;;;14.32;9.52;;;;;;;10.14;100.00;102074.69;5043100;28;20416;-84
2024/02/18 09:30:24;;;;;;;14.88;8.70;;;;;;;10.22;100.00;102071.34;5036838;28;20045;-81
2024/02/18 09:32:51;;;;;;;19.80;8.18;;;;;;;10.31;100.00;102065.38;5033360;28;20052;-82
2024/02/18 09:35:23;;;;;;;11.52;8.15;;;;;;;10.40;100.00;102067.25;5019733;28;20041;-82
2024/02/18 09:37:49;;;;;;;15.32;8.80;;;;;;;10.35;100.00;102067.19;5050517;28;20652;-82
2024/02/18 09:40:16;;;;;;;11.85;8.55;;;;;;;10.34;100.00;102065.41;5033754;28;20110;-82
2024/02/18 09:42:44;;;;;;;17.17;8.88;;;;;;;10.54;100.00;102059.59;5024901;28;20139;-82
2024/02/18 09:45:13;;;;;;;12.85;8.05;;;;;;;10.55;100.00;102058.75;5031020;28;20761;-83
2024/02/18 09:47:43;;;;;;;15.43;8.70;;;;;;;10.72;100.00;102061.59;5048950;28;20044;-79
2024/02/18 09:50:11;;;;;;;13.80;8.15;;;;;;;10.79;100.00;102045.06;5033239;28;20495;-82
2024/02/18 09:52:42;;;;;;;12.23;8.52;;;;;;;10.81;100.00;102039.84;5030200;28;20496;-80
2024/02/18 09:55:10;;;;;;;11.20;8.02;;;;;;;10.80;100.00;102040.75;5043392;28;20049;-81
2024/02/18 09:57:38;;;;;;;9.48;7.35;;;;;;;10.71;100.00;102042.34;5032460;28;20471;-82
2024/02/18 10:00:08;;;;;;;8.60;7.20;;;;;;;10.95;100.00;102038.31;5048765;28;20136;-83
2024/02/18 10:02:35;;;;;;;11.10;7.05;;;;;;;11.03;100.00;102041.88;5050290;28;20068;-84
2024/02/18 10:05:06;;;;;;;8.80;6.78;;;;;;;10.99;100.00;102029.63;5038090;28;20080;-81
2024/02/18 10:07:35;;;;;;;12.13;7.85;;;;;;;10.90;100.00;102030.38;5035541;28;20045;-82
2024/02/18 10:10:04;;;;;;;7.78;6.22;;;;;;;11.00;100.00;102017.38;5047387;28;20049;-82
2024/02/18 10:12:38;;;;;;;11.45;6.22;;;;;;;10.98;100.00;102017.38;5042478;28;20044;-81
2024/02/18 10:15:11;;;;;;;9.82;7.03;;;;;;;10.92;100.00;102014.66;5052642;28;20040;-83
2024/02/18 10:17:37;;;;;;;10.18;6.47;;;;;;;11.06;100.00;102006.97;5033035;28;20044;-82
2024/02/18 10:20:05;;;;;;;9.20;6.30;;;;;;;11.11;100.00;102007.00;5051911;28;20041;-81
2024/02/18 10:22:31;;;;;;;8.85;6.57;;;;;;;11.02;100.00;102003.44;5031506;28;20045;-82
2024/02/18 10:25:07;;;;;;;10.77;6.85;;;;;;;11.14;100.00;101993.94;5054448;28;20080;-83
2024/02/18 10:27:38;;;;;;;6.78;5.10;;;;;;;11.29;100.00;101996.72;5045206;28;20049;-82
2024/02/18 10:30:10;;;;;;;7.63;6.05;;;;;;;11.34;100.00;101995.03;5026020;28;20535;-82
2024/02/18 10:32:44;;;;;;;9.27;6.50;;;;;;;11.38;100.00;101986.31;5033134;28;20620;-82
2024/02/18 10:35:15;;;;;;;7.45;5.75;;;;;;;11.38;100.00;101981.09;5032626;28;20105;-82
2024/02/18 10:37:43;;;;;;;11.35;6.68;;;;;;;11.30;100.00;101982.72;5031040;28;20386;-82
2024/02/18 10:40:40;;;;;;;9.45;6.35;;;;;;;11.38;100.00;101975.84;5033462;28;20063;-81
2024/02/18 10:43:11;;;;;;;10.90;5.43;;;;;;;11.31;100.00;101968.78;5047979;28;20040;-83
2024/02/18 10:45:41;;;;;;;10.32;6.32;;;;;;;11.27;100.00;101969.63;5032765;28;20060;-81
2024/02/18 10:48:11;;;;;;;7.88;6.57;;;;;;;11.30;100.00;101963.53;5053131;28;20060;-82
2024/02/18 10:50:45;;;;;;;11.18;7.32;;;;;;;11.37;100.00;101960.09;5029802;28;20136;-82
2024/02/18 10:53:35;;;;;;;11.68;6.40;;;;;;;11.36;100.00;101955.72;5052054;28;20043;-81
2024/02/18 10:56:23;;;;;;;8.07;6.75;;;;;;;11.31;100.00;101955.66;5029763;28;20053;-82
2024/02/18 10:59:19;;;;;;;9.93;6.32;;;;;;;11.28;100.00;101950.41;5051018;28;20044;-81
2024/02/18 11:01:55;;;;;;;5.30;4.78;;;;;;;11.19;100.00;101934.59;5034691;28;20056;-81
2024/02/18 11:04:25;;;;;;;11.55;5.65;;;;;;;11.12;100.00;101941.53;5035660;28;20140;-84
2024/02/18 11:06:55;;;;;;;6.43;5.30;;;;;;;11.08;100.00;101935.38;5040110;28;20040;-83
2024/02/18 11:09:28;;;;;;;13.18;5.63;;;;;;;11.04;100.00;101928.34;5049547;28;20396;-82
2024/02/18 11:11:56;;;;;;;6.82;5.20;;;;;;;10.91;100.00;101923.84;5050085;28;20494;-82
2024/02/18 11:14:25;;;;;;;10.80;6.07;;;;;;;10.94;100.00;101926.50;5045211;28;20037;-83